Time;durP1;ratioP1;P1;durP2;ratioP2;P2;SDS_P1;SDS_P2;PMS_P1;PMS_P2;Temp;Humidity;BMP_temperature;BMP_pressure;BME280_temperature;BME280_humidity;BME280_pressure;Samples;Min_cycle;Max_cycle;Signal;HPM_P1;HPM_P2
2023/04/09 00:00:37;;;;;;;7.30;4.97;;;9.80;99.90;;;;;;4988279;28;20233;-68
2023/04/09 00:03:03;;;;;;;6.60;4.27;;;9.90;99.90;;;;;;5008870;28;20218;-66
2023/04/09 00:05:29;;;;;;;5.30;4.60;;;9.90;99.90;;;;;;5009559;28;20793;-68
2023/04/09 00:07:55;;;;;;;9.00;4.80;;;9.80;99.90;;;;;;5003005;28;20593;-66
2023/04/09 00:10:20;;;;;;;8.43;5.20;;;9.80;99.90;;;;;;5009478;28;20220;-69
2023/04/09 00:12:46;;;;;;;7.40;4.57;;;9.90;99.90;;;;;;5007410;28;20226;-69
2023/04/09 00:15:12;;;;;;;7.13;4.90;;;9.90;99.90;;;;;;5009734;28;20249;-68
2023/04/09 00:17:37;;;;;;;6.63;4.40;;;9.90;99.90;;;;;;5009271;28;20249;-67
2023/04/09 00:20:03;;;;;;;7.67;4.70;;;9.90;99.90;;;;;;5009050;28;20707;-68
2023/04/09 00:22:30;;;;;;;7.23;4.70;;;10.00;99.90;;;;;;5009028;28;20714;-68
2023/04/09 00:24:56;;;;;;;6.80;4.33;;;9.90;99.90;;;;;;5004947;28;20456;-69
2023/04/09 00:27:22;;;;;;;7.07;4.70;;;9.90;99.90;;;;;;5002239;28;20477;-69
2023/04/09 00:29:47;;;;;;;6.87;4.80;;;9.90;99.90;;;;;;5007904;28;20567;-68
2023/04/09 00:32:13;;;;;;;7.57;4.90;;;9.90;99.90;;;;;;4990951;28;20445;-66
2023/04/09 00:34:39;;;;;;;6.87;4.80;;;9.90;99.90;;;;;;5016863;28;20301;-69
2023/04/09 00:37:05;;;;;;;6.00;4.30;;;9.90;99.90;;;;;;5009227;28;20218;-67
2023/04/09 00:39:30;;;;;;;7.90;4.90;;;9.90;99.90;;;;;;5009281;28;20221;-67
2023/04/09 00:41:57;;;;;;;6.30;4.40;;;9.90;99.90;;;;;;5009183;28;20468;-68
2023/04/09 00:44:24;;;;;;;8.47;4.67;;;9.90;99.90;;;;;;5008663;28;20237;-67
2023/04/09 00:46:51;;;;;;;5.97;4.30;;;9.90;99.90;;;;;;4998963;28;20464;-68
2023/04/09 00:49:16;;;;;;;6.87;4.23;;;9.90;99.90;;;;;;5008746;28;20463;-69
2023/04/09 00:51:44;;;;;;;5.20;3.90;;;9.90;99.90;;;;;;5008064;28;20453;-69
2023/04/09 00:54:09;;;;;;;7.53;4.43;;;9.90;99.90;;;;;;5008642;28;20638;-69
2023/04/09 00:56:37;;;;;;;6.70;3.77;;;9.90;99.90;;;;;;5003242;28;20438;-68
2023/04/09 00:59:02;;;;;;;7.27;4.80;;;9.90;99.90;;;;;;5008031;28;20715;-69
2023/04/09 01:01:28;;;;;;;7.70;4.63;;;9.80;99.90;;;;;;4994950;28;20457;-69
2023/04/09 01:03:54;;;;;;;7.47;4.40;;;9.70;99.90;;;;;;5006219;28;20226;-69
2023/04/09 01:06:42;;;;;;;7.60;4.73;;;9.70;99.90;;;;;;5008517;28;20218;-68
2023/04/09 01:09:20;;;;;;;5.03;4.20;;;9.50;99.90;;;;;;5006848;28;20491;-69
2023/04/09 01:12:01;;;;;;;8.37;4.70;;;9.50;99.90;;;;;;5005786;28;20499;-69
2023/04/09 01:14:44;;;;;;;7.67;5.20;;;9.60;99.90;;;;;;5008390;28;20452;-69
2023/04/09 01:17:20;;;;;;;8.93;5.20;;;9.70;99.90;;;;;;5005426;28;20460;-69
2023/04/09 01:19:57;;;;;;;6.53;4.97;;;9.70;99.90;;;;;;5008509;28;20449;-69
2023/04/09 01:22:31;;;;;;;8.70;4.70;;;9.70;99.90;;;;;;5006582;28;20464;-68
2023/04/09 01:25:04;;;;;;;7.73;4.87;;;9.70;99.90;;;;;;5006803;28;20455;-69
2023/04/09 01:27:52;;;;;;;8.53;5.10;;;9.70;99.90;;;;;;4989814;28;20458;-68
2023/04/09 01:30:19;;;;;;;7.50;4.30;;;9.70;99.90;;;;;;5002483;28;20469;-69
2023/04/09 01:32:45;;;;;;;6.80;4.10;;;9.70;99.90;;;;;;5000396;28;21001;-69
2023/04/09 01:35:12;;;;;;;6.73;4.60;;;9.60;99.90;;;;;;5007008;28;20456;-69
2023/04/09 01:37:38;;;;;;;5.80;4.63;;;9.60;99.90;;;;;;4991025;28;20226;-69
2023/04/09 01:40:07;;;;;;;6.13;4.10;;;9.60;99.90;;;;;;4998444;28;20477;-68
2023/04/09 01:42:34;;;;;;;7.60;4.60;;;9.60;99.90;;;;;;4985554;28;20461;-69
2023/04/09 01:45:01;;;;;;;5.93;4.33;;;9.60;99.90;;;;;;5007921;28;20519;-69
2023/04/09 01:47:27;;;;;;;5.77;4.00;;;9.60;99.90;;;;;;5003637;28;20457;-69
2023/04/09 01:49:53;;;;;;;6.87;4.10;;;9.60;99.90;;;;;;4991040;28;20477;-68
2023/04/09 01:52:19;;;;;;;8.50;4.47;;;9.60;99.90;;;;;;5009248;28;21037;-69
2023/04/09 01:54:45;;;;;;;6.57;4.37;;;9.60;99.90;;;;;;5000547;28;20224;-69
2023/04/09 01:57:10;;;;;;;8.07;4.40;;;9.60;99.90;;;;;;5007839;28;20469;-70
2023/04/09 01:59:36;;;;;;;7.37;4.63;;;9.60;99.90;;;;;;5007086;28;20214;-69
2023/04/09 02:02:29;;;;;;;7.40;4.47;;;9.60;99.90;;;;;;4991084;28;20214;-67
2023/04/09 02:04:57;;;;;;;8.90;5.13;;;9.60;99.90;;;;;;5002252;28;20210;-68
2023/04/09 02:07:32;;;;;;;6.67;4.83;;;9.60;99.90;;;;;;5007193;28;20465;-68
2023/04/09 02:09:59;;;;;;;7.10;4.90;;;9.60;99.90;;;;;;5007754;28;20515;-69
2023/04/09 02:12:26;;;;;;;5.80;4.63;;;9.50;99.90;;;;;;5007624;28;20478;-69
2023/04/09 02:14:53;;;;;;;8.10;5.67;;;9.60;99.90;;;;;;5006802;28;20481;-68
2023/04/09 02:17:19;;;;;;;6.40;4.40;;;9.60;99.90;;;;;;5007612;28;20472;-69
2023/04/09 02:19:46;;;;;;;7.03;4.77;;;9.60;99.90;;;;;;4992968;28;20456;-69
2023/04/09 02:22:13;;;;;;;6.17;4.53;;;9.60;99.90;;;;;;4999865;28;20249;-69
2023/04/09 02:24:40;;;;;;;6.33;4.60;;;9.60;99.90;;;;;;5004018;28;20460;-67
2023/04/09 02:27:06;;;;;;;6.47;4.47;;;9.60;99.90;;;;;;5004516;28;20457;-70
2023/04/09 02:29:32;;;;;;;6.70;4.30;;;9.60;99.90;;;;;;4997176;28;20997;-69
2023/04/09 02:31:58;;;;;;;7.10;4.57;;;9.60;99.90;;;;;;5007208;28;20445;-69
2023/04/09 02:34:24;;;;;;;8.80;5.97;;;9.60;99.90;;;;;;5010685;28;20836;-68
2023/04/09 02:36:50;;;;;;;8.53;5.10;;;9.60;99.90;;;;;;5008531;28;20226;-69
2023/04/09 02:39:16;;;;;;;8.90;4.87;;;9.60;99.90;;;;;;4983551;28;20476;-67
2023/04/09 02:41:42;;;;;;;7.00;4.70;;;9.60;99.90;;;;;;4994776;28;20704;-69
2023/04/09 02:44:08;;;;;;;7.83;4.33;;;9.60;99.90;;;;;;4996620;28;20298;-68
2023/04/09 02:46:34;;;;;;;10.63;5.30;;;9.60;99.90;;;;;;4997042;28;20530;-69
2023/04/09 02:48:59;;;;;;;7.57;4.67;;;9.50;99.90;;;;;;4992325;28;20272;-68
2023/04/09 02:51:26;;;;;;;10.20;5.10;;;9.50;99.90;;;;;;5008140;28;20226;-69
2023/04/09 02:53:52;;;;;;;11.77;5.10;;;9.50;99.90;;;;;;5007733;28;20236;-69
2023/04/09 02:56:17;;;;;;;6.83;5.40;;;9.50;99.90;;;;;;5005028;28;20491;-68
2023/04/09 02:58:43;;;;;;;9.83;5.20;;;9.50;99.90;;;;;;5010551;28;20484;-69
2023/04/09 03:01:09;;;;;;;8.73;5.40;;;9.50;99.90;;;;;;4990865;28;20698;-69
2023/04/09 03:03:37;;;;;;;8.73;5.20;;;9.50;99.90;;;;;;5009751;28;20226;-68
2023/04/09 03:06:03;;;;;;;8.97;4.40;;;9.40;99.90;;;;;;5010819;28;20979;-69
2023/04/09 03:08:29;;;;;;;8.43;5.50;;;9.40;99.90;;;;;;5010348;28;20461;-68
2023/04/09 03:10:55;;;;;;;10.00;4.57;;;9.40;99.90;;;;;;4993573;28;20214;-68
2023/04/09 03:13:20;;;;;;;9.67;5.50;;;9.40;99.90;;;;;;5010575;28;20218;-69
2023/04/09 03:15:51;;;;;;;7.73;5.03;;;9.40;99.90;;;;;;5006397;28;20218;-68
2023/04/09 03:18:17;;;;;;;7.73;5.30;;;9.40;99.90;;;;;;4999362;28;20281;-68
2023/04/09 03:20:43;;;;;;;9.47;5.57;;;9.30;99.90;;;;;;5003340;28;20525;-68
2023/04/09 03:23:10;;;;;;;8.67;6.03;;;9.30;99.90;;;;;;5010247;28;20222;-69
2023/04/09 03:25:40;;;;;;;8.80;5.00;;;9.30;99.90;;;;;;4994629;28;20441;-67
2023/04/09 03:28:11;;;;;;;11.17;6.83;;;9.30;99.90;;;;;;5002908;28;20476;-69
2023/04/09 03:30:41;;;;;;;10.50;5.50;;;9.20;99.90;;;;;;4993747;28;20510;-68
2023/04/09 03:33:07;;;;;;;8.17;5.37;;;9.30;99.90;;;;;;5005114;28;20489;-69
2023/04/09 03:35:42;;;;;;;9.40;6.23;;;9.30;99.90;;;;;;5010368;28;20524;-69
2023/04/09 03:38:09;;;;;;;9.20;5.67;;;9.30;99.90;;;;;;5009153;28;20519;-69
2023/04/09 03:40:35;;;;;;;11.17;5.80;;;9.30;99.90;;;;;;5001061;28;20459;-68
2023/04/09 03:43:01;;;;;;;10.60;6.20;;;9.40;99.90;;;;;;4993874;28;20214;-69
2023/04/09 03:45:28;;;;;;;9.93;5.43;;;9.40;99.90;;;;;;4993888;28;20237;-69
2023/04/09 03:48:01;;;;;;;9.70;5.33;;;9.40;99.90;;;;;;5008392;28;20299;-69
2023/04/09 03:50:27;;;;;;;9.13;5.87;;;9.30;99.90;;;;;;5009854;28;20490;-68
2023/04/09 03:52:55;;;;;;;11.50;6.00;;;9.30;99.90;;;;;;5006480;28;20218;-68
2023/04/09 03:55:21;;;;;;;10.80;6.07;;;9.30;99.90;;;;;;4999933;28;20513;-68
2023/04/09 03:57:47;;;;;;;8.80;5.30;;;9.30;99.90;;;;;;4992628;28;20457;-68
2023/04/09 04:00:16;;;;;;;7.80;4.60;;;9.30;99.90;;;;;;4992730;28;20856;-69
2023/04/09 04:03:01;;;;;;;10.13;5.77;;;9.30;99.90;;;;;;5008787;28;20467;-69
2023/04/09 04:05:46;;;;;;;8.43;5.00;;;9.30;99.90;;;;;;5005196;28;20464;-68
2023/04/09 04:08:14;;;;;;;8.97;5.63;;;9.20;99.90;;;;;;5009107;28;20500;-68
2023/04/09 04:10:40;;;;;;;9.73;5.17;;;9.20;99.90;;;;;;4991048;28;20984;-67
2023/04/09 04:13:09;;;;;;;10.73;5.90;;;9.20;99.90;;;;;;4992300;28;20465;-69
2023/04/09 04:15:44;;;;;;;9.93;6.10;;;9.10;99.90;;;;;;5002255;28;20457;-68
2023/04/09 04:18:12;;;;;;;8.60;5.43;;;9.10;99.90;;;;;;5007548;28;20469;-69
2023/04/09 04:20:44;;;;;;;10.10;6.37;;;9.10;99.90;;;;;;4989739;28;20984;-69
2023/04/09 04:23:12;;;;;;;10.20;5.83;;;9.10;99.90;;;;;;5009003;28;20457;-69
2023/04/09 04:25:47;;;;;;;8.60;5.83;;;9.10;99.90;;;;;;5009406;28;20860;-69
2023/04/09 04:28:19;;;;;;;9.53;6.17;;;9.00;99.90;;;;;;4993444;28;20481;-69
2023/04/09 04:30:45;;;;;;;10.27;6.07;;;9.00;99.90;;;;;;5004645;28;20453;-69
2023/04/09 04:33:10;;;;;;;12.10;5.37;;;9.00;99.90;;;;;;4990836;28;20226;-69
2023/04/09 04:36:10;;;;;;;9.90;5.53;;;8.90;99.90;;;;;;5009538;28;20218;-69
2023/04/09 04:38:46;;;;;;;9.07;5.70;;;8.90;99.90;;;;;;5007637;28;20473;-69
2023/04/09 04:41:17;;;;;;;9.33;5.27;;;8.80;99.90;;;;;;5008923;28;20849;-69
2023/04/09 04:43:50;;;;;;;9.87;5.40;;;8.80;99.90;;;;;;5008135;28;20473;-69
2023/04/09 04:46:20;;;;;;;9.70;5.50;;;8.80;99.90;;;;;;5008296;28;20452;-68
2023/04/09 04:48:46;;;;;;;10.00;5.80;;;8.70;99.90;;;;;;5006496;28;20466;-68
2023/04/09 04:51:12;;;;;;;9.90;5.17;;;8.70;99.90;;;;;;5006035;28;20461;-69
2023/04/09 04:53:43;;;;;;;6.53;4.97;;;8.70;99.90;;;;;;5007463;28;20225;-68
2023/04/09 04:56:14;;;;;;;7.43;5.50;;;8.60;99.90;;;;;;5008073;28;20464;-69
2023/04/09 04:58:49;;;;;;;9.17;4.70;;;8.60;99.90;;;;;;4999121;28;20453;-70
2023/04/09 05:01:17;;;;;;;10.77;5.73;;;8.50;99.90;;;;;;4990443;28;20463;-69
2023/04/09 05:03:43;;;;;;;9.97;5.50;;;8.50;99.90;;;;;;5002898;28;20453;-68
2023/04/09 05:06:23;;;;;;;8.00;5.00;;;8.50;99.90;;;;;;4997749;28;20672;-69
2023/04/09 05:08:49;;;;;;;8.17;4.87;;;8.50;99.90;;;;;;5002306;28;20528;-69
2023/04/09 05:11:16;;;;;;;12.53;6.17;;;8.40;99.90;;;;;;5007483;28;20674;-69
2023/04/09 05:13:44;;;;;;;10.13;5.93;;;8.30;99.90;;;;;;4991927;28;20460;-69
2023/04/09 05:16:17;;;;;;;9.00;5.63;;;8.30;99.90;;;;;;5008571;28;20468;-66
2023/04/09 05:18:46;;;;;;;7.70;5.17;;;8.30;99.90;;;;;;5002780;28;20244;-67
2023/04/09 05:21:12;;;;;;;10.17;6.03;;;8.30;99.90;;;;;;4990192;28;20469;-69
2023/04/09 05:23:41;;;;;;;11.80;6.67;;;8.30;99.90;;;;;;4992358;28;20493;-67
2023/04/09 05:26:07;;;;;;;8.67;4.40;;;8.20;99.90;;;;;;5008297;28;20476;-70
2023/04/09 05:28:46;;;;;;;9.23;5.20;;;8.30;99.90;;;;;;5003938;28;21001;-66
2023/04/09 05:31:16;;;;;;;8.90;5.80;;;8.30;99.90;;;;;;4991821;28;20460;-67
2023/04/09 05:33:52;;;;;;;9.00;5.17;;;8.20;99.90;;;;;;5007279;28;20455;-69
2023/04/09 05:36:22;;;;;;;10.70;6.27;;;8.20;99.90;;;;;;5008362;28;20982;-67
2023/04/09 05:38:48;;;;;;;9.90;5.80;;;8.20;99.90;;;;;;5007900;28;20461;-69
2023/04/09 05:41:13;;;;;;;11.57;6.90;;;8.20;99.90;;;;;;5005802;28;20225;-67
2023/04/09 05:43:50;;;;;;;12.23;6.63;;;8.20;99.90;;;;;;5005967;28;20228;-68
2023/04/09 05:46:16;;;;;;;8.53;5.10;;;8.10;99.90;;;;;;5006609;28;20471;-70
2023/04/09 05:48:43;;;;;;;9.40;5.30;;;8.10;99.90;;;;;;5000979;28;20471;-68
2023/04/09 05:51:09;;;;;;;10.00;5.93;;;8.20;99.90;;;;;;5006480;28;20452;-69
2023/04/09 05:53:36;;;;;;;11.50;6.93;;;8.20;99.90;;;;;;5004719;28;20453;-68
2023/04/09 05:56:01;;;;;;;11.50;7.03;;;8.20;99.90;;;;;;5008142;28;21077;-69
2023/04/09 05:58:39;;;;;;;11.27;6.97;;;8.20;99.90;;;;;;5009464;28;20224;-68
2023/04/09 06:01:05;;;;;;;9.70;6.20;;;8.30;99.90;;;;;;5001702;28;20480;-67
2023/04/09 06:03:31;;;;;;;13.53;7.20;;;8.30;99.90;;;;;;4984794;28;20220;-68
2023/04/09 06:05:56;;;;;;;11.47;7.47;;;8.30;99.90;;;;;;5007684;28;20233;-68
2023/04/09 06:08:22;;;;;;;9.00;6.70;;;8.30;99.90;;;;;;5005997;28;20224;-68
2023/04/09 06:10:47;;;;;;;10.13;6.27;;;8.40;99.90;;;;;;5007655;28;20225;-69
2023/04/09 06:13:13;;;;;;;16.03;7.40;;;8.30;99.90;;;;;;4986918;28;20224;-68
2023/04/09 06:15:40;;;;;;;10.90;7.33;;;8.40;99.90;;;;;;4989207;28;20782;-68
2023/04/09 06:18:06;;;;;;;11.30;6.83;;;8.40;99.90;;;;;;5004435;28;20519;-69
2023/04/09 06:20:31;;;;;;;14.37;7.10;;;8.40;99.90;;;;;;5004229;28;20228;-68
2023/04/09 06:22:57;;;;;;;11.60;7.03;;;8.40;99.90;;;;;;5007403;28;20233;-68
2023/04/09 06:25:23;;;;;;;9.50;5.90;;;8.40;99.90;;;;;;5017333;28;20225;-66
2023/04/09 06:27:48;;;;;;;9.87;5.77;;;8.40;99.90;;;;;;5009894;28;20261;-69
2023/04/09 06:30:14;;;;;;;11.10;6.07;;;8.40;99.90;;;;;;5011053;28;20218;-68
2023/04/09 06:32:40;;;;;;;8.60;6.07;;;8.40;99.90;;;;;;5010047;28;20222;-68
2023/04/09 06:35:07;;;;;;;9.43;6.43;;;8.50;99.90;;;;;;5011636;28;20278;-69
2023/04/09 06:37:33;;;;;;;11.13;7.20;;;8.50;99.90;;;;;;5010946;28;20233;-69
2023/04/09 06:39:59;;;;;;;11.40;5.73;;;8.50;99.90;;;;;;4994934;28;20579;-68
2023/04/09 06:42:25;;;;;;;9.67;5.90;;;8.60;99.90;;;;;;5008287;28;20938;-68
2023/04/09 06:44:57;;;;;;;11.73;7.10;;;8.60;99.90;;;;;;5004118;28;20243;-69
2023/04/09 06:47:22;;;;;;;10.97;6.77;;;8.60;99.90;;;;;;4994163;28;20562;-69
2023/04/09 06:49:48;;;;;;;9.97;6.83;;;8.70;99.90;;;;;;5009323;28;20232;-68
2023/04/09 06:52:14;;;;;;;10.73;7.30;;;8.70;99.90;;;;;;4993677;28;20214;-69
2023/04/09 06:54:39;;;;;;;10.90;6.30;;;8.80;99.90;;;;;;5010777;28;20217;-67
2023/04/09 06:57:06;;;;;;;15.10;7.53;;;8.80;99.90;;;;;;5012238;28;20300;-69
2023/04/09 06:59:32;;;;;;;13.27;6.53;;;8.90;99.90;;;;;;4993286;28;20224;-69
2023/04/09 07:01:59;;;;;;;12.87;7.23;;;8.90;99.90;;;;;;5003294;28;20452;-69
2023/04/09 07:04:25;;;;;;;12.63;7.20;;;9.00;99.90;;;;;;5010975;28;20529;-69
2023/04/09 07:06:53;;;;;;;14.70;8.60;;;9.00;99.90;;;;;;5010557;28;20468;-69
2023/04/09 07:09:19;;;;;;;10.70;6.40;;;9.00;99.90;;;;;;4993925;28;20477;-69
2023/04/09 07:11:45;;;;;;;13.43;7.27;;;9.10;99.90;;;;;;4994289;28;20520;-69
2023/04/09 07:14:11;;;;;;;14.10;8.00;;;9.20;99.90;;;;;;5009560;28;21035;-67
2023/04/09 07:16:36;;;;;;;14.90;7.97;;;9.20;99.90;;;;;;5008619;28;20536;-69
2023/04/09 07:19:02;;;;;;;15.40;8.80;;;9.20;99.90;;;;;;5009341;28;20793;-68
2023/04/09 07:21:28;;;;;;;16.50;8.80;;;9.30;99.90;;;;;;5010789;28;20574;-69
2023/04/09 07:23:55;;;;;;;14.37;8.57;;;9.40;99.90;;;;;;5008805;28;20257;-69
2023/04/09 07:26:21;;;;;;;15.40;8.63;;;9.40;99.90;;;;;;4992951;28;20232;-69
2023/04/09 07:28:47;;;;;;;16.47;8.10;;;9.50;99.90;;;;;;5007089;28;20557;-68
2023/04/09 07:31:13;;;;;;;18.60;7.83;;;9.50;99.90;;;;;;5009553;28;20555;-68
2023/04/09 07:33:39;;;;;;;16.43;8.60;;;9.60;99.90;;;;;;5010831;28;20232;-69
2023/04/09 07:36:05;;;;;;;15.50;8.50;;;9.60;99.90;;;;;;5010263;28;20222;-68
2023/04/09 07:38:32;;;;;;;17.83;8.23;;;9.70;99.90;;;;;;4981689;28;20504;-69
2023/04/09 07:40:57;;;;;;;11.53;7.20;;;9.70;99.90;;;;;;5007780;28;20453;-69
2023/04/09 07:43:23;;;;;;;15.47;7.80;;;9.80;99.90;;;;;;5011368;28;21050;-69
2023/04/09 07:45:50;;;;;;;13.67;9.03;;;9.80;99.90;;;;;;4988780;28;20284;-69
2023/04/09 07:48:16;;;;;;;14.90;8.97;;;9.80;99.90;;;;;;5007906;28;20237;-68
2023/04/09 07:50:43;;;;;;;14.00;8.20;;;9.90;99.90;;;;;;5010132;28;20536;-69
2023/04/09 07:53:10;;;;;;;15.13;8.43;;;9.80;99.90;;;;;;5007974;28;20511;-69
2023/04/09 07:55:36;;;;;;;14.77;8.80;;;10.00;99.90;;;;;;5007512;28;20534;-68
2023/04/09 07:58:03;;;;;;;15.93;8.30;;;10.10;99.90;;;;;;5005886;28;21089;-69
2023/04/09 08:00:29;;;;;;;14.80;8.40;;;10.20;99.90;;;;;;5000602;28;20228;-69
2023/04/09 08:02:56;;;;;;;14.53;8.17;;;10.20;99.90;;;;;;5007418;28;20476;-69
2023/04/09 08:05:22;;;;;;;16.10;8.90;;;10.30;99.90;;;;;;5009256;28;20316;-69
2023/04/09 08:07:49;;;;;;;16.47;9.27;;;10.30;99.90;;;;;;5000954;28;20472;-69
2023/04/09 08:10:15;;;;;;;14.60;8.20;;;10.40;99.90;;;;;;5009080;28;20469;-68
2023/04/09 08:12:41;;;;;;;14.33;8.20;;;10.40;99.90;;;;;;4996364;28;20455;-69
2023/04/09 08:15:07;;;;;;;12.43;8.23;;;10.50;99.90;;;;;;5010673;28;20522;-68
2023/04/09 08:17:35;;;;;;;18.40;9.17;;;10.60;99.90;;;;;;5006239;28;20473;-69
2023/04/09 08:20:02;;;;;;;12.37;8.43;;;10.70;99.90;;;;;;5009896;28;20473;-69
2023/04/09 08:22:28;;;;;;;13.43;9.00;;;10.80;99.90;;;;;;5009735;28;20467;-69
2023/04/09 08:24:56;;;;;;;16.20;8.73;;;10.80;99.90;;;;;;5008979;28;20471;-68
2023/04/09 08:27:21;;;;;;;15.50;9.73;;;11.00;99.90;;;;;;5007299;28;20230;-68
2023/04/09 08:29:47;;;;;;;12.43;8.60;;;11.10;99.90;;;;;;5008815;28;20448;-68
2023/04/09 08:32:13;;;;;;;14.43;9.40;;;11.30;99.90;;;;;;4991998;28;20218;-68
2023/04/09 08:34:39;;;;;;;16.60;10.60;;;11.40;99.90;;;;;;5008104;28;20214;-68
2023/04/09 08:37:05;;;;;;;13.93;8.93;;;11.40;99.90;;;;;;5008374;28;20222;-68
2023/04/09 08:39:32;;;;;;;16.30;8.60;;;11.60;99.90;;;;;;4992052;28;20445;-68
2023/04/09 08:42:00;;;;;;;15.27;8.40;;;11.70;99.90;;;;;;5009046;28;20472;-69
2023/04/09 08:44:27;;;;;;;15.47;9.97;;;11.70;99.90;;;;;;5004689;28;20481;-68
2023/04/09 08:46:53;;;;;;;15.40;9.80;;;11.80;99.90;;;;;;5007722;28;20453;-69
2023/04/09 08:49:20;;;;;;;16.03;9.23;;;11.80;99.90;;;;;;5008310;28;20477;-69
2023/04/09 08:51:48;;;;;;;14.70;9.30;;;11.70;99.90;;;;;;5010109;28;20457;-68
2023/04/09 08:54:18;;;;;;;15.27;9.67;;;11.60;99.90;;;;;;5004652;28;20461;-68
2023/04/09 08:56:47;;;;;;;14.60;8.90;;;11.60;99.90;;;;;;5001610;28;20515;-68
2023/04/09 08:59:19;;;;;;;15.70;9.53;;;11.80;99.90;;;;;;5000275;28;20522;-69
2023/04/09 09:01:46;;;;;;;13.60;8.67;;;12.10;99.90;;;;;;5003252;28;20462;-68
2023/04/09 09:04:12;;;;;;;14.23;8.87;;;12.30;99.90;;;;;;5009243;28;20484;-67
2023/04/09 09:06:39;;;;;;;15.97;9.10;;;12.40;99.90;;;;;;5008219;28;20602;-68
2023/04/09 09:09:09;;;;;;;16.73;9.13;;;12.50;99.90;;;;;;5006497;28;20252;-67
2023/04/09 09:11:43;;;;;;;16.10;8.90;;;12.60;99.90;;;;;;5007224;28;20453;-68
2023/04/09 09:14:11;;;;;;;15.50;9.30;;;12.70;99.90;;;;;;4988307;28;20468;-66
2023/04/09 09:16:55;;;;;;;15.73;9.27;;;12.70;99.90;;;;;;5005376;28;20466;-69
2023/04/09 09:19:23;;;;;;;16.13;8.77;;;12.90;99.90;;;;;;5007241;28;20464;-68
2023/04/09 09:21:59;;;;;;;12.53;7.50;;;12.90;99.90;;;;;;5008942;28;20461;-68
2023/04/09 09:24:25;;;;;;;13.53;8.57;;;12.90;99.90;;;;;;5007537;28;20464;-68
2023/04/09 09:26:51;;;;;;;11.67;7.80;;;13.10;99.90;;;;;;5003537;28;20829;-67
2023/04/09 09:29:18;;;;;;;14.10;7.70;;;13.30;99.90;;;;;;5007840;28;20225;-68
2023/04/09 09:31:49;;;;;;;13.03;8.93;;;13.20;99.90;;;;;;5010551;28;20463;-67
2023/04/09 09:34:16;;;;;;;13.00;8.47;;;13.00;99.90;;;;;;5007812;28;20865;-68
2023/04/09 09:36:43;;;;;;;11.77;8.50;;;13.30;99.90;;;;;;5008826;28;20982;-69
2023/04/09 09:39:11;;;;;;;14.50;8.60;;;13.60;99.90;;;;;;5005324;28;20494;-68
2023/04/09 09:41:41;;;;;;;18.03;9.60;;;13.40;99.90;;;;;;5008256;28;20445;-68
2023/04/09 09:44:08;;;;;;;13.97;8.17;;;13.30;99.90;;;;;;5007613;28;20472;-69
2023/04/09 09:46:37;;;;;;;12.50;9.07;;;13.40;99.90;;;;;;5007393;28;20471;-68
2023/04/09 09:49:03;;;;;;;11.90;8.57;;;13.60;99.90;;;;;;5008620;28;20477;-68
2023/04/09 09:51:31;;;;;;;12.33;7.60;;;13.90;99.90;;;;;;5008836;28;20460;-68
2023/04/09 09:53:57;;;;;;;11.40;7.87;;;14.20;99.90;;;;;;5003861;28;20477;-69
2023/04/09 09:56:31;;;;;;;12.50;8.40;;;14.50;99.90;;;;;;5007017;28;20460;-69
2023/04/09 09:59:11;;;;;;;14.17;8.70;;;14.50;99.90;;;;;;5008172;28;20475;-68
2023/04/09 10:01:40;;;;;;;10.70;6.93;;;14.40;99.90;;;;;;5011674;28;20804;-68
2023/04/09 10:04:12;;;;;;;10.63;8.07;;;14.20;99.90;;;;;;4995053;28;20836;-69
2023/04/09 10:06:42;;;;;;;11.07;7.20;;;14.00;99.90;;;;;;5012911;28;20455;-70
2023/04/09 10:09:12;;;;;;;10.23;7.03;;;14.20;99.90;;;;;;5006354;28;20472;-69
2023/04/09 10:11:41;;;;;;;10.20;7.27;;;14.60;99.90;;;;;;5009711;28;20531;-69
2023/04/09 10:14:07;;;;;;;10.93;7.90;;;14.80;99.90;;;;;;4996747;28;20808;-69
2023/04/09 10:16:34;;;;;;;9.97;7.33;;;14.80;99.90;;;;;;5011660;28;20863;-71
2023/04/09 10:19:00;;;;;;;12.60;7.43;;;14.60;99.90;;;;;;5009631;28;20476;-70
2023/04/09 10:21:44;;;;;;;12.10;6.90;;;14.60;99.90;;;;;;5011449;28;20458;-68
2023/04/09 10:24:10;;;;;;;13.87;7.27;;;14.50;99.90;;;;;;5004459;28;20470;-69
2023/04/09 10:26:39;;;;;;;10.20;6.30;;;14.70;99.90;;;;;;5011768;28;20524;-70
2023/04/09 10:29:13;;;;;;;11.80;7.87;;;14.90;99.90;;;;;;5003655;28;20499;-68
2023/04/09 10:31:54;;;;;;;11.03;7.40;;;15.10;99.90;;;;;;5005270;28;20446;-68
2023/04/09 10:34:22;;;;;;;11.43;6.70;;;15.60;99.90;;;;;;5010391;28;20468;-67
2023/04/09 10:36:55;;;;;;;9.30;6.43;;;15.80;99.90;;;;;;5004715;28;20504;-68
2023/04/09 10:39:27;;;;;;;10.73;6.87;;;15.70;99.90;;;;;;5010713;28;20495;-68
2023/04/09 10:41:56;;;;;;;10.00;6.50;;;15.80;99.90;;;;;;5010605;28;21074;-69
2023/04/09 10:44:23;;;;;;;12.43;6.47;;;15.90;99.90;;;;;;5008555;28;21025;-71
2023/04/09 10:46:51;;;;;;;9.37;7.20;;;15.80;99.90;;;;;;5001789;28;20472;-69
2023/04/09 10:49:25;;;;;;;11.10;7.30;;;16.00;99.90;;;;;;4999613;28;20577;-71
2023/04/09 10:52:02;;;;;;;8.20;6.43;;;16.10;99.90;;;;;;4996742;28;20519;-71
2023/04/09 10:54:34;;;;;;;8.23;6.60;;;16.10;99.90;;;;;;4996060;28;20472;-70
2023/04/09 10:57:06;;;;;;;7.80;5.73;;;16.10;99.90;;;;;;5000469;28;20464;-71
2023/04/09 10:59:35;;;;;;;8.40;5.43;;;15.90;99.90;;;;;;5000597;28;20579;-69
2023/04/09 11:02:01;;;;;;;7.90;6.03;;;16.20;99.90;;;;;;4998438;28;20488;-70
2023/04/09 11:04:42;;;;;;;8.00;5.50;;;16.60;99.90;;;;;;4995978;28;20478;-67
2023/04/09 11:07:08;;;;;;;7.33;4.90;;;16.70;99.90;;;;;;5000877;28;20468;-68
2023/04/09 11:09:34;;;;;;;6.80;4.87;;;16.70;99.90;;;;;;5001280;28;21014;-67
2023/04/09 11:12:00;;;;;;;7.83;5.47;;;16.70;99.90;;;;;;5013173;28;20547;-69
2023/04/09 11:14:26;;;;;;;6.43;5.53;;;16.50;99.90;;;;;;4996430;28;20450;-67
2023/04/09 11:16:52;;;;;;;9.00;6.23;;;16.10;99.90;;;;;;5001655;28;20530;-67
2023/04/09 11:19:19;;;;;;;7.03;6.03;;;15.90;99.90;;;;;;4981778;28;20226;-67
2023/04/09 11:21:47;;;;;;;7.47;5.53;;;16.00;99.90;;;;;;4999564;28;20237;-68
2023/04/09 11:24:13;;;;;;;6.57;5.03;;;15.80;99.90;;;;;;5002188;28;20832;-68
2023/04/09 11:26:39;;;;;;;5.47;4.03;;;15.80;99.90;;;;;;4994155;28;20481;-66
2023/04/09 11:29:08;;;;;;;4.50;4.10;;;16.20;99.90;;;;;;5009761;28;20597;-68
2023/04/09 11:31:35;;;;;;;4.70;4.07;;;16.30;99.90;;;;;;4990593;28;20628;-68
2023/04/09 11:34:01;;;;;;;6.27;3.70;;;16.20;99.90;;;;;;5001717;28;20465;-67
2023/04/09 11:36:27;;;;;;;6.13;3.93;;;16.40;99.90;;;;;;5000197;28;20453;-67
2023/04/09 11:38:54;;;;;;;7.10;4.73;;;16.60;99.90;;;;;;5004588;28;21037;-67
2023/04/09 11:41:33;;;;;;;7.77;5.20;;;16.30;99.90;;;;;;5000748;28;20476;-67
2023/04/09 11:44:02;;;;;;;5.43;4.30;;;16.30;99.90;;;;;;5009274;28;20547;-68
2023/04/09 11:46:31;;;;;;;5.73;4.77;;;16.40;99.80;;;;;;4994603;28;20449;-67
2023/04/09 11:48:57;;;;;;;6.73;5.03;;;16.40;99.90;;;;;;5001249;28;20480;-68
2023/04/09 11:51:23;;;;;;;8.17;5.40;;;16.30;99.70;;;;;;5013105;28;20523;-68
2023/04/09 11:53:49;;;;;;;9.27;6.50;;;16.20;99.90;;;;;;5003724;28;20544;-67
2023/04/09 11:56:15;;;;;;;8.23;5.33;;;16.10;99.90;;;;;;5006127;28;20497;-67
2023/04/09 11:58:47;;;;;;;7.17;5.27;;;15.90;99.90;;;;;;4998554;28;20492;-67
2023/04/09 12:01:14;;;;;;;8.80;6.00;;;15.80;99.90;;;;;;4998889;28;20237;-68
2023/04/09 12:03:46;;;;;;;7.10;5.13;;;15.90;99.30;;;;;;4991051;28;20469;-69
2023/04/09 12:06:13;;;;;;;5.63;4.60;;;15.80;98.60;;;;;;5001045;28;20487;-69
2023/04/09 12:08:38;;;;;;;6.63;4.70;;;15.90;98.60;;;;;;5010544;28;20497;-69
2023/04/09 12:11:12;;;;;;;6.10;4.33;;;16.10;97.70;;;;;;5009515;28;20305;-69
2023/04/09 12:13:43;;;;;;;3.77;3.47;;;16.10;98.70;;;;;;4987013;28;20222;-68
2023/04/09 12:16:09;;;;;;;6.10;4.73;;;16.10;96.20;;;;;;5009362;28;20627;-68
2023/04/09 12:18:36;;;;;;;5.23;3.93;;;16.20;97.00;;;;;;5004093;28;21062;-69
2023/04/09 12:21:03;;;;;;;6.77;4.73;;;16.50;96.50;;;;;;4992461;28;21021;-69
2023/04/09 12:23:30;;;;;;;6.23;5.20;;;16.40;96.70;;;;;;5000268;28;20472;-69
2023/04/09 12:25:59;;;;;;;11.30;5.30;;;16.30;96.80;;;;;;5005814;28;20461;-69
2023/04/09 12:28:25;;;;;;;6.33;4.93;;;16.40;96.70;;;;;;5007662;28;20465;-69
2023/04/09 12:30:51;;;;;;;4.93;4.43;;;16.70;98.20;;;;;;5007172;28;20503;-69
2023/04/09 12:33:16;;;;;;;8.17;4.80;;;16.50;96.20;;;;;;5009728;28;20461;-69
2023/04/09 12:35:42;;;;;;;6.93;4.50;;;16.40;96.90;;;;;;5009717;28;20756;-69
2023/04/09 12:38:08;;;;;;;5.70;4.60;;;16.40;96.00;;;;;;5005442;28;20245;-70
2023/04/09 12:40:37;;;;;;;5.37;4.87;;;16.30;96.10;;;;;;5005559;28;20249;-68
2023/04/09 12:43:03;;;;;;;5.07;4.50;;;16.30;96.20;;;;;;4988636;28;20218;-69
2023/04/09 12:45:29;;;;;;;6.70;4.37;;;16.30;97.00;;;;;;5007313;28;20456;-69
2023/04/09 12:47:55;;;;;;;6.00;4.87;;;16.30;96.40;;;;;;5008946;28;20320;-69
2023/04/09 12:50:21;;;;;;;7.40;5.67;;;16.00;97.10;;;;;;4990760;28;20911;-68
2023/04/09 12:52:46;;;;;;;5.63;4.50;;;15.90;97.30;;;;;;5007959;28;20232;-69